createdAt,value
2022-11-15T00:02:16.349Z,7.00
2022-11-15T00:05:02.862Z,7.00
2022-11-15T00:07:55.775Z,7.00
2022-11-15T00:10:44.256Z,7.10
2022-11-15T00:13:31.537Z,7.00
2022-11-15T00:16:18.491Z,7.00
2022-11-15T00:19:05.094Z,7.10
2022-11-15T00:21:51.254Z,7.10
2022-11-15T00:24:37.888Z,7.10
2022-11-15T00:27:25.704Z,7.10
2022-11-15T00:30:13.493Z,7.10
2022-11-15T00:33:04.287Z,7.10
2022-11-15T00:35:50.601Z,7.10
2022-11-15T00:38:38.399Z,7.10
2022-11-15T00:41:24.830Z,7.20
2022-11-15T00:44:12.594Z,7.20
2022-11-15T00:46:58.949Z,7.10
2022-11-15T00:49:45.397Z,7.10
2022-11-15T00:52:31.854Z,7.00
2022-11-15T00:55:19.568Z,7.00
2022-11-15T00:58:05.939Z,6.90
2022-11-15T01:00:53.807Z,6.90
2022-11-15T01:03:41.511Z,6.90
2022-11-15T01:06:27.932Z,6.80
2022-11-15T01:09:14.464Z,6.80
2022-11-15T01:12:00.761Z,6.80
2022-11-15T01:14:47.378Z,6.80
2022-11-15T01:17:35.148Z,6.80
2022-11-15T01:20:21.699Z,6.80
2022-11-15T01:23:08.288Z,6.80
2022-11-15T01:26:00.009Z,6.80
2022-11-15T01:28:46.323Z,6.80
2022-11-15T01:31:32.819Z,6.80
2022-11-15T01:34:20.446Z,6.90
2022-11-15T01:37:07.085Z,6.90
2022-11-15T01:39:53.577Z,6.90
2022-11-15T01:42:40.031Z,6.90
2022-11-15T01:45:26.893Z,6.90
2022-11-15T01:48:13.308Z,6.90
2022-11-15T01:51:02.873Z,6.90
2022-11-15T01:53:52.578Z,6.90
2022-11-15T01:56:45.461Z,6.80
2022-11-15T01:59:32.477Z,6.70
2022-11-15T02:02:19.013Z,6.70
2022-11-15T02:05:06.248Z,6.70
2022-11-15T02:07:53.965Z,6.70
2022-11-15T02:10:40.012Z,6.70
2022-11-15T02:13:26.715Z,6.70
2022-11-15T02:16:21.313Z,6.80
2022-11-15T02:19:26.614Z,6.80
2022-11-15T02:22:24.385Z,6.80
2022-11-15T02:25:35.264Z,6.80
2022-11-15T02:28:46.136Z,6.90
2022-11-15T02:31:41.405Z,6.90
2022-11-15T02:34:35.671Z,6.90
2022-11-15T02:37:31.760Z,6.90
2022-11-15T02:40:28.780Z,6.90
2022-11-15T02:43:44.469Z,6.90
2022-11-15T02:46:56.605Z,6.90
2022-11-15T02:49:47.178Z,6.80
2022-11-15T02:52:33.486Z,6.70
2022-11-15T02:55:31.473Z,6.70
2022-11-15T02:58:44.159Z,6.60
2022-11-15T03:01:46.827Z,6.70
2022-11-15T03:04:41.267Z,6.70
2022-11-15T03:07:33.456Z,6.70
2022-11-15T03:10:27.256Z,6.70
2022-11-15T03:13:22.479Z,6.70
2022-11-15T03:16:12.740Z,6.70
2022-11-15T03:19:06.692Z,6.60
2022-11-15T03:21:54.366Z,6.70
2022-11-15T03:24:42.469Z,6.60
2022-11-15T03:27:32.766Z,6.70
2022-11-15T03:30:20.015Z,6.70
2022-11-15T03:33:07.208Z,6.60
2022-11-15T03:35:55.809Z,6.60
2022-11-15T03:38:43.607Z,6.50
2022-11-15T03:41:37.102Z,6.50
2022-11-15T03:44:36.247Z,6.50
2022-11-15T03:47:28.252Z,6.50
2022-11-15T03:50:17.376Z,6.50
2022-11-15T03:53:05.203Z,6.50
2022-11-15T03:55:51.470Z,6.60
2022-11-15T03:58:38.248Z,6.60
2022-11-15T04:01:24.452Z,6.50
2022-11-15T04:04:10.575Z,6.50
2022-11-15T04:06:57.277Z,6.40
2022-11-15T04:09:58.935Z,6.40
2022-11-15T04:12:48.175Z,6.50
2022-11-15T04:15:34.970Z,6.50
2022-11-15T04:18:21.240Z,6.30
2022-11-15T04:24:14.520Z,6.20
2022-11-15T04:27:02.608Z,6.10
2022-11-15T04:29:49.183Z,6.10
2022-11-15T04:32:35.645Z,6.10
2022-11-15T04:35:22.007Z,6.10
2022-11-15T04:38:11.661Z,6.10
2022-11-15T04:40:57.936Z,6.10
2022-11-15T04:43:45.771Z,6.10
2022-11-15T04:46:32.400Z,6.00
2022-11-15T04:49:18.688Z,6.00
2022-11-15T04:52:05.592Z,6.00
2022-11-15T04:54:52.171Z,6.10
2022-11-15T04:57:38.951Z,6.10
2022-11-15T05:00:27.193Z,6.10
2022-11-15T05:03:33.374Z,6.10
2022-11-15T05:06:19.780Z,6.10
2022-11-15T05:09:06.175Z,6.10
2022-11-15T05:11:52.388Z,6.00
2022-11-15T05:14:39.027Z,6.00
2022-11-15T05:17:27.025Z,5.90
2022-11-15T05:20:14.140Z,5.80
2022-11-15T05:23:00.423Z,5.80
2022-11-15T05:25:46.817Z,5.80
2022-11-15T05:28:33.687Z,5.80
2022-11-15T05:31:19.824Z,5.80
2022-11-15T05:34:07.714Z,5.80
2022-11-15T05:36:54.041Z,5.80
2022-11-15T05:39:40.618Z,5.70
2022-11-15T05:42:28.675Z,5.70
2022-11-15T05:45:15.347Z,5.60
2022-11-15T05:48:06.657Z,5.60
2022-11-15T05:50:54.846Z,5.60
2022-11-15T05:53:41.353Z,5.60
2022-11-15T05:56:28.040Z,5.60
2022-11-15T05:59:15.057Z,5.50
2022-11-15T06:02:01.622Z,5.50
2022-11-15T06:04:47.714Z,5.50
2022-11-15T06:07:35.588Z,5.50
2022-11-15T06:10:22.082Z,5.50
2022-11-15T06:13:08.475Z,5.50
2022-11-15T06:15:57.499Z,5.50
2022-11-15T06:18:43.738Z,5.60
2022-11-15T06:21:30.295Z,5.50
2022-11-15T06:24:17.772Z,5.50
2022-11-15T06:27:04.293Z,5.50
2022-11-15T06:29:50.569Z,5.50
2022-11-15T06:32:36.918Z,5.50
2022-11-15T06:35:23.090Z,5.50
2022-11-15T06:38:11.227Z,5.50
2022-11-15T06:41:03.820Z,5.50
2022-11-15T06:43:49.920Z,5.60
2022-11-15T06:46:36.495Z,5.80
2022-11-15T06:49:23.030Z,5.90
2022-11-15T06:52:09.361Z,5.90
2022-11-15T06:54:55.912Z,6.00
2022-11-15T06:57:50.188Z,6.20
2022-11-15T07:00:36.868Z,6.30
2022-11-15T07:03:23.205Z,6.40
2022-11-15T07:06:11.364Z,6.40
2022-11-15T07:08:57.942Z,6.50
2022-11-15T07:11:44.309Z,6.60
2022-11-15T07:14:32.289Z,6.70
2022-11-15T07:17:18.519Z,6.70
2022-11-15T07:20:05.630Z,6.80
2022-11-15T07:22:52.125Z,6.80
2022-11-15T07:25:38.715Z,6.90
2022-11-15T07:28:25.168Z,6.90
2022-11-15T07:31:12.976Z,7.00
2022-11-15T07:33:59.341Z,7.00
2022-11-15T07:36:45.716Z,7.10
2022-11-15T07:39:32.117Z,7.20
2022-11-15T07:42:36.021Z,7.30
2022-11-15T07:45:22.686Z,7.40
2022-11-15T07:48:10.278Z,7.40
2022-11-15T07:50:56.727Z,7.50
2022-11-15T07:53:43.638Z,7.50
2022-11-15T07:56:29.830Z,7.50
2022-11-15T07:59:16.345Z,7.60
2022-11-15T08:02:03.008Z,7.60
2022-11-15T08:04:50.972Z,7.70
2022-11-15T08:07:38.998Z,7.70
2022-11-15T08:10:25.815Z,7.70
2022-11-15T08:13:14.374Z,7.80
2022-11-15T08:16:01.373Z,7.80
2022-11-15T08:18:47.983Z,7.90
2022-11-15T08:21:36.085Z,8.00
2022-11-15T08:24:22.492Z,8.00
2022-11-15T08:27:15.548Z,8.10
2022-11-15T08:30:02.509Z,8.20
2022-11-15T08:32:49.214Z,8.20
2022-11-15T08:35:35.399Z,8.30
2022-11-15T08:38:23.220Z,8.40
2022-11-15T08:41:14.180Z,8.40
2022-11-15T08:44:00.760Z,8.50
2022-11-15T08:46:47.746Z,8.50
2022-11-15T08:49:34.231Z,8.60
2022-11-15T08:52:21.112Z,8.60
2022-11-15T08:55:09.959Z,8.70
2022-11-15T08:57:59.333Z,8.70
2022-11-15T09:00:45.972Z,8.80
2022-11-15T09:03:32.423Z,8.90
2022-11-15T09:06:18.929Z,8.90
2022-11-15T09:09:05.517Z,9.00
2022-11-15T09:11:56.789Z,9.00
2022-11-15T09:14:46.227Z,9.10
2022-11-15T09:17:32.589Z,9.20
2022-11-15T09:20:19.190Z,9.20
2022-11-15T09:23:06.728Z,9.30
2022-11-15T09:25:53.258Z,9.30
2022-11-15T09:28:42.737Z,9.30
2022-11-15T09:31:30.293Z,9.30
2022-11-15T09:34:16.685Z,9.30
2022-11-15T09:37:03.030Z,9.30
2022-11-15T09:39:49.509Z,9.20
2022-11-15T09:42:55.196Z,9.20
2022-11-15T09:45:50.873Z,9.20
2022-11-15T09:48:50.571Z,9.20
2022-11-15T09:51:48.350Z,9.10
2022-11-15T09:57:16.516Z,9.10
2022-11-15T09:59:57.487Z,9.20
2022-11-15T10:02:43.279Z,9.20
2022-11-15T10:05:14.530Z,9.10
2022-11-15T10:07:52.130Z,9.20
2022-11-15T10:10:27.147Z,9.10
2022-11-15T10:12:55.387Z,9.20
2022-11-15T10:15:24.271Z,9.20
2022-11-15T10:18:16.975Z,9.20
2022-11-15T10:20:50.297Z,9.30
2022-11-15T10:23:20.956Z,9.30
2022-11-15T10:25:49.086Z,9.40
2022-11-15T10:28:19.095Z,9.40
2022-11-15T10:30:49.125Z,9.40
2022-11-15T10:33:26.769Z,9.40
2022-11-15T10:36:20.092Z,9.50
2022-11-15T10:38:59.248Z,9.50
2022-11-15T10:41:41.354Z,9.40
2022-11-15T10:44:25.179Z,9.30
2022-11-15T10:47:26.942Z,9.30
2022-11-15T10:50:01.544Z,9.30
2022-11-15T10:52:31.570Z,9.30
2022-11-15T10:55:04.323Z,9.30
2022-11-15T10:57:34.695Z,9.40
2022-11-15T11:00:06.953Z,9.40
2022-11-15T11:02:38.071Z,9.40
2022-11-15T11:05:26.660Z,9.50
2022-11-15T11:07:58.681Z,9.50
2022-11-15T11:10:50.368Z,9.60
2022-11-15T11:13:16.262Z,9.60
2022-11-15T11:15:49.003Z,9.60
2022-11-15T11:18:24.877Z,9.60
2022-11-15T11:21:00.242Z,9.60
2022-11-15T11:23:52.231Z,9.70
2022-11-15T11:26:42.638Z,9.60
2022-11-15T11:29:24.487Z,9.60
2022-11-15T11:32:01.042Z,9.60
2022-11-15T11:34:41.953Z,9.50
2022-11-15T11:37:19.736Z,9.50
2022-11-15T11:39:58.611Z,9.50
2022-11-15T11:42:35.539Z,9.50
2022-11-15T11:45:17.332Z,9.60
2022-11-15T11:47:57.031Z,9.60
2022-11-15T11:50:28.168Z,9.60
2022-11-15T11:53:04.170Z,9.60
2022-11-15T11:55:37.360Z,9.70
2022-11-15T11:58:13.108Z,9.60
2022-11-15T12:00:45.644Z,9.70
2022-11-15T12:03:20.944Z,9.70
2022-11-15T12:05:51.936Z,9.80
2022-11-15T12:08:32.956Z,9.80
2022-11-15T12:11:08.833Z,9.90
2022-11-15T12:13:38.848Z,9.90
2022-11-15T12:16:14.503Z,9.90
2022-11-15T12:18:44.329Z,9.90
2022-11-15T12:21:21.707Z,10.00
2022-11-15T12:23:59.473Z,10.00
2022-11-15T12:26:30.556Z,10.00
2022-11-15T12:29:09.330Z,10.00
2022-11-15T12:31:41.300Z,10.10
2022-11-15T12:34:31.613Z,10.10
2022-11-15T12:36:59.408Z,10.10
2022-11-15T12:40:00.969Z,10.10
2022-11-15T12:42:43.048Z,10.20
2022-11-15T12:45:27.771Z,10.20
2022-11-15T12:47:55.692Z,10.20
2022-11-15T12:50:58.901Z,10.20
2022-11-15T12:53:31.604Z,10.20
2022-11-15T12:56:24.112Z,10.20
2022-11-15T12:58:56.276Z,10.20
2022-11-15T13:01:57.495Z,10.20
2022-11-15T13:04:30.877Z,10.30
2022-11-15T13:07:01.694Z,10.30
2022-11-15T13:09:52.458Z,10.30
2022-11-15T13:12:51.951Z,10.30
2022-11-15T13:15:47.273Z,10.30
2022-11-15T13:18:36.923Z,10.30
2022-11-15T13:21:28.085Z,10.30
2022-11-15T13:23:57.191Z,10.20
2022-11-15T13:26:25.149Z,10.30
2022-11-15T13:28:56.351Z,10.20
2022-11-15T13:31:28.935Z,10.20
2022-11-15T13:33:59.827Z,10.30
2022-11-15T13:36:29.741Z,10.30
2022-11-15T13:39:00.158Z,10.20
2022-11-15T13:41:30.389Z,10.30
2022-11-15T13:43:59.686Z,10.30
2022-11-15T13:46:30.346Z,10.30
2022-11-15T13:49:00.901Z,10.40
2022-11-15T13:51:39.107Z,10.40
2022-11-15T13:54:15.733Z,10.40
2022-11-15T13:56:47.319Z,10.40
2022-11-15T13:59:22.857Z,10.30
2022-11-15T14:01:52.589Z,10.30
2022-11-15T14:04:22.575Z,10.30
2022-11-15T14:06:53.850Z,10.20
2022-11-15T14:09:36.846Z,10.20
2022-11-15T14:12:25.440Z,10.20
2022-11-15T14:14:53.958Z,10.20
2022-11-15T14:17:35.943Z,10.20
2022-11-15T14:20:20.736Z,10.20
2022-11-15T14:22:54.576Z,10.20
2022-11-15T14:25:24.106Z,10.20
2022-11-15T14:28:18.098Z,10.20
2022-11-15T14:30:50.898Z,10.20
2022-11-15T14:33:24.200Z,10.20
2022-11-15T14:35:52.891Z,10.20
2022-11-15T14:38:20.704Z,10.10
2022-11-15T14:40:48.475Z,10.10
2022-11-15T14:43:16.308Z,10.20
2022-11-15T14:45:44.469Z,10.10
2022-11-15T14:48:12.319Z,10.10
2022-11-15T14:50:41.764Z,10.10
2022-11-15T14:53:18.291Z,10.10
2022-11-15T14:55:46.126Z,10.10
2022-11-15T14:58:13.888Z,10.10
2022-11-15T15:00:42.886Z,10.10
2022-11-15T15:03:11.005Z,10.10
2022-11-15T15:05:42.399Z,10.10
2022-11-15T15:08:11.299Z,10.00
2022-11-15T15:10:42.308Z,10.00
2022-11-15T15:13:18.608Z,10.10
2022-11-15T15:15:46.952Z,10.10
2022-11-15T15:18:14.766Z,10.10
2022-11-15T15:20:46.416Z,10.10
2022-11-15T15:23:18.109Z,10.10
2022-11-15T15:25:46.520Z,10.10
2022-11-15T15:28:14.949Z,10.00
2022-11-15T15:30:42.959Z,10.00
2022-11-15T15:33:10.703Z,10.00
2022-11-15T15:35:38.544Z,10.10
2022-11-15T15:38:07.636Z,10.00
2022-11-15T15:40:35.459Z,10.00
2022-11-15T15:43:03.213Z,10.00
2022-11-15T15:45:31.795Z,10.00
2022-11-15T15:47:59.541Z,10.00
2022-11-15T15:50:29.124Z,10.00
2022-11-15T15:52:58.489Z,10.00
2022-11-15T15:55:28.471Z,10.00
2022-11-15T15:57:56.707Z,10.00
2022-11-15T16:00:26.253Z,10.00
2022-11-15T16:02:54.500Z,10.00
2022-11-15T16:05:22.998Z,10.00
2022-11-15T16:07:50.946Z,10.00
2022-11-15T16:10:22.236Z,9.90
2022-11-15T16:12:51.835Z,9.90
2022-11-15T16:15:20.314Z,9.90
2022-11-15T16:17:51.620Z,9.90
2022-11-15T16:20:40.548Z,9.80
2022-11-15T16:23:10.235Z,9.80
2022-11-15T16:25:44.128Z,9.80
2022-11-15T16:28:20.899Z,9.80
2022-11-15T16:30:55.376Z,9.80
2022-11-15T16:33:24.969Z,9.80
2022-11-15T16:35:52.788Z,9.80
2022-11-15T16:38:20.860Z,9.80
2022-11-15T16:40:48.879Z,9.80
2022-11-15T16:43:18.253Z,9.70
2022-11-15T16:45:46.074Z,9.80
2022-11-15T16:48:23.359Z,9.70
2022-11-15T16:50:51.133Z,9.70
2022-11-15T16:53:18.874Z,9.60
2022-11-15T16:55:46.637Z,9.60
2022-11-15T16:58:14.406Z,9.50
2022-11-15T17:00:43.609Z,9.50
2022-11-15T17:03:11.882Z,9.40
2022-11-15T17:05:39.676Z,9.40
2022-11-15T17:08:07.918Z,9.40
2022-11-15T17:10:35.753Z,9.30
2022-11-15T17:13:03.497Z,9.30
2022-11-15T17:15:31.273Z,9.20
2022-11-15T17:18:00.611Z,9.20
2022-11-15T17:20:28.397Z,9.20
2022-11-15T17:22:57.339Z,9.10
2022-11-15T17:25:25.336Z,9.10
2022-11-15T17:27:53.304Z,9.00
2022-11-15T17:30:21.235Z,9.00
2022-11-15T17:32:49.709Z,9.00
2022-11-15T17:35:18.924Z,9.00
2022-11-15T17:37:48.243Z,8.90
2022-11-15T17:40:16.730Z,8.90
2022-11-15T17:42:44.681Z,8.90
2022-11-15T17:45:12.648Z,8.90
2022-11-15T17:47:40.429Z,8.90
2022-11-15T17:50:09.106Z,8.80
2022-11-15T17:52:38.225Z,8.80
2022-11-15T17:55:06.702Z,8.80
2022-11-15T17:57:34.443Z,8.80
2022-11-15T18:00:02.255Z,8.70
2022-11-15T18:02:31.897Z,8.70
2022-11-15T18:04:59.700Z,8.70
2022-11-15T18:07:27.541Z,8.70
2022-11-15T18:09:56.982Z,8.60
2022-11-15T18:12:24.783Z,8.60
2022-11-15T18:14:52.512Z,8.60
2022-11-15T18:17:20.255Z,8.60
2022-11-15T18:19:48.573Z,8.60
2022-11-15T18:22:16.372Z,8.50
2022-11-15T18:24:44.820Z,8.50
2022-11-15T18:27:13.917Z,8.50
2022-11-15T18:29:41.746Z,8.50
2022-11-15T18:32:12.503Z,8.50
2022-11-15T18:34:40.343Z,8.40
2022-11-15T18:37:08.728Z,8.40
2022-11-15T18:39:37.700Z,8.40
2022-11-15T18:42:06.165Z,8.40
2022-11-15T18:44:35.371Z,8.40
2022-11-15T18:47:03.321Z,8.40
2022-11-15T18:49:31.084Z,8.40
2022-11-15T18:51:58.933Z,8.40
2022-11-15T18:54:31.077Z,8.40
2022-11-15T18:56:59.701Z,8.40
2022-11-15T18:59:28.084Z,8.40
2022-11-15T19:01:57.182Z,8.40
2022-11-15T19:04:24.951Z,8.40
2022-11-15T19:06:53.470Z,8.40
2022-11-15T19:09:21.395Z,8.40
2022-11-15T19:11:51.375Z,8.40
2022-11-15T19:14:23.749Z,8.40
2022-11-15T19:16:52.228Z,8.50
2022-11-15T19:19:23.328Z,8.50
2022-11-15T19:21:51.578Z,8.50
2022-11-15T19:24:19.473Z,8.50
2022-11-15T19:26:47.767Z,8.50
2022-11-15T19:29:18.226Z,8.50
2022-11-15T19:31:48.426Z,8.50
2022-11-15T19:34:16.492Z,8.50
2022-11-15T19:36:45.955Z,8.50
2022-11-15T19:39:15.561Z,8.50
2022-11-15T19:41:44.895Z,8.50
2022-11-15T19:44:13.837Z,8.50
2022-11-15T19:46:42.378Z,8.60
2022-11-15T19:49:10.992Z,8.60
2022-11-15T19:51:41.392Z,8.60
2022-11-15T19:54:10.784Z,8.60
2022-11-15T19:56:39.635Z,8.60
2022-11-15T19:59:07.432Z,8.60
2022-11-15T20:01:38.675Z,8.70
2022-11-15T20:04:07.740Z,8.70
2022-11-15T20:06:37.618Z,8.70
2022-11-15T20:09:05.630Z,8.70
2022-11-15T20:11:37.765Z,8.70
2022-11-15T20:14:06.496Z,8.70
2022-11-15T20:16:34.404Z,8.70
2022-11-15T20:19:02.518Z,8.70
2022-11-15T20:21:30.258Z,8.70
2022-11-15T20:23:58.005Z,8.70
2022-11-15T20:26:25.827Z,8.70
2022-11-15T20:29:00.946Z,8.60
2022-11-15T20:31:29.454Z,8.60
2022-11-15T20:33:57.264Z,8.50
2022-11-15T20:36:25.044Z,8.60
2022-11-15T20:38:56.780Z,8.50
2022-11-15T20:41:24.535Z,8.50
2022-11-15T20:43:53.601Z,8.50
2022-11-15T20:46:21.484Z,8.50
2022-11-15T20:48:49.245Z,8.50
2022-11-15T20:51:18.960Z,8.50
2022-11-15T20:53:48.130Z,8.50
2022-11-15T20:56:18.814Z,8.50
2022-11-15T20:58:47.027Z,8.50
2022-11-15T21:01:17.755Z,8.40
2022-11-15T21:03:45.587Z,8.50
2022-11-15T21:06:13.403Z,8.40
2022-11-15T21:08:58.992Z,8.50
2022-11-15T21:11:44.921Z,8.40
2022-11-15T21:14:12.672Z,8.40
2022-11-15T21:16:41.744Z,8.40
2022-11-15T21:19:10.142Z,8.40
2022-11-15T21:21:38.582Z,8.40
2022-11-15T21:24:07.577Z,8.40
2022-11-15T21:26:35.926Z,8.40
2022-11-15T21:29:04.372Z,8.40
2022-11-15T21:31:32.889Z,8.40
2022-11-15T21:34:03.168Z,8.40
2022-11-15T21:36:31.262Z,8.40
2022-11-15T21:38:59.041Z,8.30
2022-11-15T21:41:27.078Z,8.30
2022-11-15T21:43:58.341Z,8.30
2022-11-15T21:46:26.695Z,8.30
2022-11-15T21:48:54.451Z,8.30
2022-11-15T21:51:24.146Z,8.30
2022-11-15T21:53:55.329Z,8.30
2022-11-15T21:56:23.176Z,8.30
2022-11-15T21:58:51.114Z,8.30
2022-11-15T22:01:36.539Z,8.30
2022-11-15T22:04:06.176Z,8.20
2022-11-15T22:06:36.129Z,8.20
2022-11-15T22:09:04.721Z,8.20
2022-11-15T22:11:32.514Z,8.20
2022-11-15T22:14:00.521Z,8.20
2022-11-15T22:16:28.283Z,8.20
2022-11-15T22:18:56.082Z,8.20
2022-11-15T22:21:23.910Z,8.20
2022-11-15T22:23:53.069Z,8.20
2022-11-15T22:26:23.847Z,8.20
2022-11-15T22:28:52.021Z,8.20
2022-11-15T22:31:19.833Z,8.20
2022-11-15T22:33:47.907Z,8.10
2022-11-15T22:36:16.157Z,8.20
2022-11-15T22:38:43.907Z,8.20
2022-11-15T22:41:13.329Z,8.20
2022-11-15T22:43:41.089Z,8.20
2022-11-15T22:46:09.052Z,8.20
2022-11-15T22:48:39.017Z,8.20
2022-11-15T22:51:07.381Z,8.30
2022-11-15T22:53:35.143Z,8.20
2022-11-15T22:56:05.486Z,8.30
2022-11-15T22:58:35.907Z,8.30
2022-11-15T23:01:06.306Z,8.30
2022-11-15T23:03:35.002Z,8.40
2022-11-15T23:06:04.637Z,8.40
2022-11-15T23:08:32.760Z,8.40
2022-11-15T23:11:19.684Z,8.40
2022-11-15T23:13:51.691Z,8.50
2022-11-15T23:16:34.240Z,8.50
2022-11-15T23:19:04.587Z,8.50
2022-11-15T23:21:51.261Z,8.50
2022-11-15T23:24:19.707Z,8.50
2022-11-15T23:26:49.160Z,8.40
2022-11-15T23:29:20.684Z,8.50
2022-11-15T23:32:06.079Z,8.50
2022-11-15T23:34:37.284Z,8.50
2022-11-15T23:37:06.258Z,8.50
2022-11-15T23:39:34.002Z,8.50
2022-11-15T23:42:07.514Z,8.50
2022-11-15T23:44:38.045Z,8.50
2022-11-15T23:47:05.853Z,8.50
2022-11-15T23:49:33.614Z,8.50
2022-11-15T23:52:01.359Z,8.50
2022-11-15T23:54:29.112Z,8.50
2022-11-15T23:56:56.867Z,8.50
2022-11-15T23:59:24.613Z,8.60
